Cancún International Airport

MMUN · Quintana Roo, Mexico

METAR history MMUN · Cancún International Airport

Below you see METARs of the last few days. Select a year to browse through older METARs, from the year 2007 onwards.

December 3, 2022

Time Code Weather Temp. Visibility Ceiling Wind METAR/SPECI
20:47
V
24 °C 6 mi 8,000 ft 070° 070° 4 kt METAR MMUN 040147Z 07004KT 6SM SCT015CB BKN080 24/23 A3013 RMK 60075 8/360 RAE39
20:35
I
24 °C 3 mi 1,500 ft 100° 100° 10 kt METAR MMUN 040135Z 10010KT 3SM +RA BKN015CB 24/23 A3013 RMK 8/300
20:29
M
25 °C 5 mi 1,500 ft 090° 090° 7 kt METAR MMUN 040129Z 09007KT 5SM RA BKN015CB 25/23 A3013 RMK 8/300 RAB26
19:40
V
26 °C 7 mi - 050° 050° 4 kt METAR MMUN 040040Z 05004KT 7SM FEW015 26/22 A3011 RMK 8/100 AC
18:42
V
26 °C 7 mi - 070° 070° 4 kt METAR MMUN 032342Z 07004KT 7SM SCT015 26/22 A3010 RMK SLP195 52006 910 8/100 SC
17:44
V
27 °C 7 mi - 070° 070° 5 kt METAR MMUN 032244Z 07005KT 7SM FEW015TCU 27/22 A3009 RMK 8/200
16:46
V
27 °C 7 mi - 060° 060° 8 kt METAR MMUN 032146Z 06008KT 7SM SCT015TCU 27/22 A3009 RMK 8/200
15:45
M
28 °C 7 mi 1,500 ft 070° 070° 9 kt METAR MMUN 032045Z 07009KT 7SM BKN015TCU 28/23 A3009 RMK SLP189 57018 912 60005 8/200 RAE07
14:43
M
27 °C 6 mi 1,500 ft 040° 040° 13 kt METAR MMUN 031943Z 04013KT 6SM -RA BKN015TCU 27/23 A3009 RMK 60005 8/200 RAB42
13:47
V
29 °C 7 mi - 070° 070° 11 kt METAR MMUN 031847Z 07011KT 7SM SCT015TCU 29/22 A3011 RMK 8/200
12:42
M
30 °C 7 mi 1,500 ft 090° 090° 14 kt METAR MMUN 031742Z 09014KT 7SM BKN015TCU 30/22 A3014 RMK SLP207 57014 911 8/200
11:44
M
29 °C 7 mi 1,500 ft 100° 100° 5 kt METAR MMUN 031644Z 10005KT 7SM BKN015 29/22 A3017 RMK 8/100 SC
11:07
V
28 °C 7 mi - 070° 070° 10 kt METAR MMUN 031607Z RTD 07010KT 7SM SCT015 28/22 A3017 RMK 8/100
09:43
V
28 °C 7 mi - 060° 060° 7 kt METAR MMUN 031443Z 06007KT 7SM SCT015 28/22 A3018 RMK SLP221 52021 918 8/100 MDT CU CI
08:44
V
26 °C 7 mi - 060° 060° 7 kt METAR MMUN 031344Z 06007KT 7SM SCT015 26/22 A3016 RMK 8/100
07:44
V
26 °C 7 mi - 070° 070° 4 kt METAR MMUN 031244Z 07004KT 7SM SCT015 26/22 A3014 RMK 8/100 TCU SE
06:42
V
25 °C 7 mi - 080° 080° 8 kt METAR MMUN 031142Z 08008KT 7SM SCT015 25/22 A3012 RMK SLP200 52012 914 8/500 VC TCU S
05:40
V
25 °C 7 mi - 060° 060° 10 kt METAR MMUN 031040Z 06010KT 7SM SCT015 25/23 A3010 RMK 8/500
04:40
V
25 °C 7 mi - 060° 060° 6 kt METAR MMUN 030940Z 06006KT 7SM FEW015 25/22 A3009 RMK 8/500 ISOL TCU
03:42
V
25 °C 7 mi - 080° 080° 9 kt METAR MMUN 030842Z 08009KT 7SM SCT015 25/23 A3009 RMK SLP188 57013 908 8/500
02:40
V
23 °C 7 mi - Var 000° 0 kt METAR MMUN 030740Z 00000KT 7SM SCT015 23/22 A3009 RMK 8/500 ISOL TCU
01:40
V
23 °C 7 mi - Var 000° 0 kt METAR MMUN 030640Z 00000KT 7SM SCT015 23/21 A3011 RMK 8/500 AC OCNL DROPS
00:40
M
25 °C 7 mi 1,500 ft 050° 050° 6 kt METAR MMUN 030540Z 05006KT 7SM BKN015 25/23 A3012 RMK SLP201 57005 907 8/500 OCNL DROPS

December 2, 2022

Time Code Weather Temp. Visibility Ceiling Wind METAR/SPECI
23:40
V
26 °C 7 mi - 060° 060° 6 kt METAR MMUN 030440Z 06006KT 7SM SCT015 26/23 A3013 RMK 8/500 AC
22:40
V
27 °C 7 mi - 060° 060° 8 kt METAR MMUN 030340Z 06008KT 7SM SCT015 27/22 A3014 RMK 8/500
21:40
V
27 °C 7 mi - 100° 100° 8 kt METAR MMUN 030240Z 10008KT 7SM SCT015 27/22 A3014 RMK SLP206 52021 905 8/500
20:42
V
27 °C 7 mi - 090° 090° 5 kt METAR MMUN 030142Z 09005KT 7SM SCT015 27/22 A3012 RMK 8/500
19:42
V
27 °C 7 mi - 080° 080° 4 kt METAR MMUN 030042Z 08004KT 7SM FEW015 27/22 A3010 RMK 8/500
18:48
V
27 °C 7 mi - 080° 080° 5 kt METAR MMUN 022348Z 08005KT 7SM SCT015 27/22 A3008 RMK SLP185 52008 904 8/400
17:41
V
27 °C 7 mi - 080° 080° 5 kt METAR MMUN 022241Z 08005KT 7SM SCT015 27/22 A3006 RMK 8/400
16:43
V
29 °C 7 mi - 100° 100° 7 kt METAR MMUN 022143Z 10007KT 7SM SCT015 29/22 A3006 RMK 8/100
15:43
V
29 °C 7 mi - 100° 100° 10 kt METAR MMUN 022043Z 10010KT 7SM SCT015 29/22 A3005 RMK SLP177 57019 900 8/100
14:41
V
29 °C 7 mi - 090° 090° 11 kt METAR MMUN 021941Z 09011KT 7SM SCT015TCU 29/22 A3006 RMK 8/200
13:46
M
28 °C 7 mi 1,500 ft 080° 080° 8 kt METAR MMUN 021846Z 08008KT 7SM BKN015TCU 28/23 A3007 RMK 8/200
12:44
V
29 °C 7 mi - 100° 100° 14 kt METAR MMUN 021744Z 10014KT 7SM SCT015 29/22 A3009 RMK SLP196 57007 906 8/100
11:40
V
30 °C 7 mi - 080° 080° 11 kt METAR MMUN 021640Z 08011KT 7SM SCT015 30/22 A3012 RMK 8/100
10:42
V
29 °C 7 mi - 090° 090° 16 kt METAR MMUN 021542Z 09016KT 7SM SCT015 29/22 A3013 RMK 8/100 MDT CU
09:41
V
28 °C 7 mi - 080° 080° 10 kt METAR MMUN 021441Z 08010KT 7SM SCT015TCU 28/23 A3013 RMK SLP203 52017 905 60005 8/200 CBS VC PCPN W
09:27
V
27 °C 6 mi - 080° 080° 10 kt METAR MMUN 021427Z 08010KT 6SM RA SCT015CB 27/23 A3013 RMK 8/300 RAB15E25 INTMT RA
08:41
V
28 °C 7 mi - 080° 080° 5 kt METAR MMUN 021341Z 08005KT 7SM SCT015TCU 28/23 A3011 RMK 8/200 DSNT CB S PCPN S
07:40
V
26 °C 7 mi - 100° 100° 10 kt METAR MMUN 021240Z 10010KT 7SM SCT015TCU 26/23 A3009 RMK 8/200
06:45
V
26 °C 7 mi - 080° 080° 8 kt METAR MMUN 021145Z 08008KT 7SM SCT015TCU 26/23 A3008 RMK SLP186 52006 908 8/200
05:46
V
26 °C 7 mi - 090° 090° 6 kt METAR MMUN 021046Z 09006KT 7SM SCT015TCU 26/23 A3006 RMK 8/200
04:48
V
25 °C 7 mi - 080° 080° 5 kt METAR MMUN 020948Z 08005KT 7SM SCT015TCU 25/23 A3006 RMK 8/200
03:49
V
25 °C 7 mi - 090° 090° 5 kt METAR MMUN 020849Z 09005KT 7SM FEW015TCU 25/23 A3006 RMK SLP180 57014 916 8/200
02:44
V
25 °C 7 mi - 090° 090° 6 kt METAR MMUN 020744Z 09006KT 7SM FEW015CB 25/23 A3007 RMK 8/300
01:45
V
25 °C 7 mi - 030° 030° 6 kt METAR MMUN 020645Z 03006KT 7SM SCT015CB 25/23 A3008 RMK 8/300
00:46
V
25 °C 7 mi - 080° 080° 6 kt METAR MMUN 020546Z 08006KT 7SM SCT015CB 25/23 A3010 RMK SLP194 57007 919 8/300

December 1, 2022

Time Code Weather Temp. Visibility Ceiling Wind METAR/SPECI
23:46
V
25 °C 7 mi - 060° 060° 6 kt METAR MMUN 020446Z 06006KT 7SM SCT015CB 25/22 A3011 RMK 8/300
22:47
V
25 °C 7 mi - 040° 040° 6 kt METAR MMUN 020347Z 04006KT 7SM SCT015CB 25/23 A3012 RMK 8/300 OCNL -RA
21:46
V
26 °C 7 mi - 070° 070° 7 kt METAR MMUN 020246Z 07007KT 7SM SCT015TCU 26/22 A3012 RMK SLP201 52020 922 8/200 OCNL -RA
20:41
V
26 °C 7 mi - 080° 080° 7 kt METAR MMUN 020141Z 08007KT 7SM SCT015TCU 26/22 A3010 RMK 60005 8/200
20:10
M
27 °C 6 mi 1,500 ft 080° 080° 6 kt METAR MMUN 020110Z 08006KT 6SM BKN015CB 27/24 A3009 RMK 8/300 RAE05 AC VRB WND
19:40
M
27 °C 4 mi 1,500 ft 080° 080° 5 kt METAR MMUN 020040Z 08005KT 4SM RA BKN015CB 27/23 A3008 RMK 60015 8/300 RAB37
18:44
V
27 °C 7 mi - 060° 060° 8 kt METAR MMUN 012344Z 06008KT 7SM SCT015 27/23 A3006 RMK SLP181 52004 922 8/100 CI
17:41
V
27 °C 7 mi - 080° 080° 5 kt METAR MMUN 012241Z 08005KT 7SM SCT015 27/23 A3005 RMK 8/100 DSNT CBS N
16:40
V
28 °C 7 mi - 110° 110° 7 kt METAR MMUN 012140Z 11007KT 7SM SCT015 28/23 A3004 RMK 8/100 CI
15:43
V
29 °C 7 mi - 080° 080° 9 kt METAR MMUN 012043Z 08009KT 7SM SCT015 29/23 A3005 RMK SLP177 57013 925 8/100
14:40
M
29 °C 7 mi 1,500 ft 070° 070° 9 kt METAR MMUN 011940Z 07009KT 7SM BKN015TCU 29/23 A3006 RMK 8/200 CI
13:49
M
30 °C 7 mi 1,500 ft 090° 090° 10 kt METAR MMUN 011849Z 09010KT 7SM BKN015TCU 30/23 A3007 RMK 8/200
12:47
M
29 °C 7 mi 1,500 ft 070° 070° 13 kt METAR MMUN 011747Z 07013KT 7SM BKN015TCU 29/23 A3009 RMK SLP190 57008 929 8/200
11:50
V
29 °C 7 mi - 070° 070° 12 kt METAR MMUN 011650Z 07012KT 7SM SCT015 29/24 A3011 RMK 8/100 SC
10:44
V
29 °C 7 mi - 100° 100° 6 kt METAR MMUN 011544Z 10006KT 7SM SCT015 29/24 A3011 RMK 8/100 SC
09:50
V
28 °C 7 mi - 070° 070° 8 kt METAR MMUN 011450Z 07008KT 7SM SCT015 28/24 A3011 RMK SLP198 52020 929 8/100
08:53
V
27 °C 7 mi - 090° 090° 5 kt METAR MMUN 011353Z 09005KT 7SM SCT015 27/23 A3010 RMK 8/100
07:46
V
26 °C 7 mi - 100° 100° 3 kt METAR MMUN 011246Z 10003KT 7SM SCT015 26/23 A3008 RMK 8/100
06:48
V
26 °C 7 mi - 080° 080° 7 kt METAR MMUN 011148Z 08007KT 7SM SCT015 26/23 A3006 RMK SLP178 52014 930 8/100 MDT CU
05:42
V
26 °C 7 mi - 070° 070° 5 kt METAR MMUN 011042Z 07005KT 7SM FEW015 26/23 A3003 RMK 8/500
04:49
V
25 °C 7 mi - 070° 070° 4 kt METAR MMUN 010949Z 07004KT 7SM SCT015 25/24 A3001 RMK 8/500

We and third parties follow your internet behavior on our website with cookies. If you continue, we assume you agree with our cookie policy.